Skip Navigation Links Skip Navigation Links

Current Weather

Essex County, Caldwell, N.J.

For information only: do not use for flight planning or navigation.
Latest weather
Observation time Wednesday, August 12, 2020 2:53 PM EDT
Local time Wednesday, August 12, 2020 3:09 PM EDT
Flight conditions Visual Meteorological Conditions
Winds
Wind direction variable
Wind speed 3 mph
Visibility 10 mi.
Sky condition
Ceiling unlimited
Sky clear
Temperature 94°F
Dewpoint 68°F
Altimeter 30.00 in.Hg
Derived measurements
Relative humidity 43%
Heat index 99°F
Density altitude 2604 ft.
Sea-level pressure 30.01 in.Hg
Remarks
Automated weather observing station with precipitation discriminator.
Lightning observed distant east and south.
METAR KCDW 121853Z VRB03KT 10SM CLR 34/20 A3000 RMK AO2 LTG DSNT E AND S SLP161 T03440200

Settings

Location code

InnerDrive.Weather 4.0.6770.0 Release CLR 4.0.30319.42000
Copyright ©2018 Inner Drive Technology. All rights reserved. Portions Copyright ©1986-2018 David Braverman.

Find weather

Site navigation


Skip Navigation Links

Place info

Page info

PayPal - The safer, easier way to pay online!

Return home.

Copyright ©2020 Inner Drive Technology. Purveyors of fine, hand-crafted computer software. Page printed 2020-08-12T19:09:01 UTC.